createdAt,value
2019-01-18T00:01:53.428Z,4.60
2019-01-18T00:06:29.609Z,4.50
2019-01-18T00:11:05.860Z,4.50
2019-01-18T00:15:42.012Z,4.60
2019-01-18T00:20:18.512Z,4.40
2019-01-18T00:24:54.812Z,4.40
2019-01-18T00:29:30.985Z,4.30
2019-01-18T00:34:07.116Z,4.30
2019-01-18T00:38:43.363Z,4.30
2019-01-18T00:43:19.680Z,4.30
2019-01-18T00:47:57.765Z,4.30
2019-01-18T00:52:35.616Z,4.20
2019-01-18T00:57:11.596Z,4.00
2019-01-18T01:01:47.855Z,3.90
2019-01-18T01:06:23.876Z,4.10
2019-01-18T01:10:59.998Z,4.00
2019-01-18T01:15:36.232Z,4.00
2019-01-18T01:20:14.397Z,4.00
2019-01-18T01:24:50.900Z,4.00
2019-01-18T01:29:27.191Z,3.90
2019-01-18T01:34:03.201Z,3.90
2019-01-18T01:38:39.455Z,3.80
2019-01-18T01:43:15.600Z,3.80
2019-01-18T01:47:51.892Z,3.70
2019-01-18T01:52:29.992Z,3.90
2019-01-18T01:57:07.149Z,3.70
2019-01-18T02:01:43.562Z,3.60
2019-01-18T02:06:19.625Z,3.70
2019-01-18T02:10:55.945Z,3.80
2019-01-18T02:15:33.090Z,3.90
2019-01-18T02:20:11.553Z,4.10
2019-01-18T02:24:48.865Z,4.00
2019-01-18T02:29:26.965Z,4.10
2019-01-18T02:34:03.326Z,4.10
2019-01-18T02:38:39.721Z,3.90
2019-01-18T02:43:15.772Z,3.50
2019-01-18T02:47:53.320Z,3.30
2019-01-18T02:52:29.497Z,3.30
2019-01-18T02:57:05.849Z,3.30
2019-01-18T03:01:42.061Z,3.30
2019-01-18T03:06:18.160Z,3.30
2019-01-18T03:10:54.408Z,3.30
2019-01-18T03:15:30.748Z,3.20
2019-01-18T03:20:08.845Z,3.20
2019-01-18T03:24:46.569Z,3.10
2019-01-18T03:29:23.805Z,3.10
2019-01-18T03:34:00.050Z,2.70
2019-01-18T03:38:36.205Z,2.70
2019-01-18T03:43:12.649Z,2.60
2019-01-18T03:47:50.195Z,2.60
2019-01-18T03:52:26.737Z,2.40
2019-01-18T03:57:02.710Z,2.40
2019-01-18T04:01:39.003Z,2.40
2019-01-18T04:06:16.808Z,2.40
2019-01-18T04:10:52.784Z,2.20
2019-01-18T04:15:28.640Z,2.20
2019-01-18T04:20:06.289Z,2.30
2019-01-18T04:24:42.401Z,2.20
2019-01-18T04:29:19.508Z,2.20
2019-01-18T04:33:55.936Z,2.10
2019-01-18T04:38:32.332Z,2.20
2019-01-18T04:43:10.200Z,2.20
2019-01-18T04:47:46.434Z,2.20
2019-01-18T04:52:23.692Z,2.10
2019-01-18T04:56:59.866Z,2.20
2019-01-18T05:01:35.937Z,2.30
2019-01-18T05:06:13.108Z,2.30
2019-01-18T05:10:49.321Z,2.10
2019-01-18T05:15:28.480Z,2.00
2019-01-18T05:20:05.046Z,2.00
2019-01-18T05:24:41.212Z,2.00
2019-01-18T05:29:17.412Z,1.90
2019-01-18T05:33:53.868Z,1.90
2019-01-18T05:38:31.030Z,1.80
2019-01-18T05:43:07.375Z,1.80
2019-01-18T05:47:43.121Z,2.00
2019-01-18T05:52:18.891Z,1.70
2019-01-18T05:56:54.632Z,1.80
2019-01-18T06:01:30.523Z,1.70
2019-01-18T06:06:07.549Z,1.70
2019-01-18T06:10:43.317Z,1.50
2019-01-18T06:15:19.070Z,1.50
2019-01-18T06:19:54.844Z,1.70
2019-01-18T06:24:30.599Z,1.70
2019-01-18T06:29:06.389Z,1.60
2019-01-18T06:33:42.131Z,1.50
2019-01-18T06:38:17.912Z,1.30
2019-01-18T06:42:53.653Z,1.40
2019-01-18T06:47:29.425Z,1.60
2019-01-18T06:52:05.180Z,1.60
2019-01-18T06:56:40.948Z,1.60
2019-01-18T07:01:16.701Z,1.70
2019-01-18T07:05:52.476Z,1.70
2019-01-18T07:10:28.242Z,1.70
2019-01-18T07:15:04.845Z,1.70
2019-01-18T07:19:40.603Z,1.50
2019-01-18T07:24:16.379Z,1.60
2019-01-18T07:28:52.144Z,1.50
2019-01-18T07:33:27.921Z,1.60
2019-01-18T07:38:03.670Z,1.50
2019-01-18T07:42:39.529Z,1.60
2019-01-18T07:47:15.268Z,1.60
2019-01-18T07:51:51.036Z,1.70
2019-01-18T07:56:26.789Z,1.80
2019-01-18T08:01:03.930Z,1.90
2019-01-18T08:05:39.672Z,2.00
2019-01-18T08:10:17.293Z,2.10
2019-01-18T08:14:53.063Z,2.10
2019-01-18T08:19:28.821Z,2.10
2019-01-18T08:24:04.772Z,2.10
2019-01-18T08:28:40.536Z,2.10
2019-01-18T08:33:16.285Z,2.00
2019-01-18T08:37:52.066Z,2.00
2019-01-18T08:42:27.813Z,1.90
2019-01-18T08:47:03.581Z,1.90
2019-01-18T08:51:39.328Z,1.80
2019-01-18T08:56:15.095Z,1.70
2019-01-18T09:00:50.859Z,1.90
2019-01-18T09:05:27.141Z,2.00
2019-01-18T09:10:02.889Z,2.00
2019-01-18T09:14:38.649Z,2.00
2019-01-18T09:19:14.430Z,2.00
2019-01-18T09:23:50.204Z,2.00
2019-01-18T09:28:25.952Z,1.80
2019-01-18T09:33:03.441Z,1.80
2019-01-18T09:37:39.592Z,1.80
2019-01-18T09:42:15.371Z,1.80
2019-01-18T09:46:51.121Z,1.90
2019-01-18T09:51:26.880Z,2.00
2019-01-18T09:56:02.628Z,2.00
2019-01-18T10:00:39.682Z,2.10
2019-01-18T10:05:15.436Z,2.20
2019-01-18T10:09:51.204Z,2.40
2019-01-18T10:14:26.956Z,2.60
2019-01-18T10:19:02.732Z,2.60
2019-01-18T10:23:38.505Z,2.70
2019-01-18T10:28:14.330Z,2.70
2019-01-18T10:32:50.081Z,2.70
2019-01-18T10:37:25.845Z,2.90
2019-01-18T10:42:01.591Z,2.90
2019-01-18T10:46:37.384Z,2.80
2019-01-18T10:51:13.145Z,2.60
2019-01-18T10:55:48.932Z,2.40
2019-01-18T11:00:30.532Z,2.50
2019-01-18T11:05:07.304Z,2.50
2019-01-18T11:09:43.057Z,2.50
2019-01-18T11:14:18.844Z,2.60
2019-01-18T11:18:54.606Z,2.80
2019-01-18T11:23:30.369Z,2.60
2019-01-18T11:28:06.141Z,2.60
2019-01-18T11:32:41.913Z,2.60
2019-01-18T11:37:17.648Z,2.70
2019-01-18T11:41:53.424Z,2.60
2019-01-18T11:46:29.186Z,2.70
2019-01-18T11:51:04.955Z,2.60
2019-01-18T11:55:40.709Z,2.70
2019-01-18T12:00:18.906Z,2.70
2019-01-18T12:04:54.729Z,2.70
2019-01-18T12:09:30.514Z,2.70
2019-01-18T12:14:06.253Z,2.70
2019-01-18T12:18:42.041Z,2.80
2019-01-18T12:23:17.789Z,2.80
2019-01-18T12:27:53.545Z,2.80
2019-01-18T12:32:29.505Z,2.80
2019-01-18T12:37:05.273Z,2.80
2019-01-18T12:41:41.096Z,2.90
2019-01-18T12:46:16.872Z,2.60
2019-01-18T12:50:52.626Z,2.70
2019-01-18T12:55:28.400Z,2.70
2019-01-18T13:00:06.232Z,2.70
2019-01-18T13:04:42.328Z,2.70
2019-01-18T13:09:18.076Z,2.40
2019-01-18T13:13:53.895Z,2.40
2019-01-18T13:18:29.705Z,2.50
2019-01-18T13:23:05.501Z,2.40
2019-01-18T13:27:41.261Z,2.50
2019-01-18T13:32:17.023Z,2.60
2019-01-18T13:36:52.791Z,2.70
2019-01-18T13:41:28.578Z,2.70
2019-01-18T13:46:04.624Z,2.80
2019-01-18T13:50:40.405Z,2.80
2019-01-18T13:55:19.306Z,2.80
2019-01-18T13:59:55.068Z,2.80
2019-01-18T14:04:30.816Z,2.80
2019-01-18T14:09:09.488Z,2.70
2019-01-18T14:13:45.228Z,2.70
2019-01-18T14:18:22.116Z,2.80
2019-01-18T14:22:57.865Z,2.70
2019-01-18T14:27:33.638Z,2.70
2019-01-18T14:32:09.394Z,2.80
2019-01-18T14:36:45.153Z,2.70
2019-01-18T14:41:20.929Z,2.70
2019-01-18T14:45:56.697Z,2.70
2019-01-18T14:50:32.751Z,2.70
2019-01-18T14:55:08.944Z,2.70
2019-01-18T14:59:44.693Z,2.80
2019-01-18T15:04:20.464Z,2.90
2019-01-18T15:08:56.209Z,2.80
2019-01-18T15:13:31.982Z,2.80
2019-01-18T15:18:07.764Z,2.80
2019-01-18T15:22:43.557Z,2.60
2019-01-18T15:27:19.301Z,2.40
2019-01-18T15:31:55.095Z,2.40
2019-01-18T15:36:32.853Z,2.50
2019-01-18T15:41:08.613Z,2.50
2019-01-18T15:45:44.776Z,2.60
2019-01-18T15:50:23.638Z,2.60
2019-01-18T15:54:59.385Z,2.60
2019-01-18T15:59:35.156Z,2.60
2019-01-18T16:04:10.926Z,2.50
2019-01-18T16:08:46.688Z,2.50
2019-01-18T16:13:22.440Z,2.40
2019-01-18T16:17:58.341Z,2.40
2019-01-18T16:22:34.111Z,2.20
2019-01-18T16:27:09.926Z,2.20
2019-01-18T16:31:45.678Z,2.20
2019-01-18T16:36:21.448Z,2.00
2019-01-18T16:40:57.184Z,1.80
2019-01-18T16:45:32.955Z,1.70
2019-01-18T16:50:10.708Z,1.80
2019-01-18T16:54:46.481Z,1.90
2019-01-18T16:59:22.234Z,1.70
2019-01-18T17:03:58.016Z,1.50
2019-01-18T17:08:33.782Z,1.50
2019-01-18T17:13:09.605Z,1.50
2019-01-18T17:17:45.374Z,1.50
2019-01-18T17:22:21.148Z,1.40
2019-01-18T17:26:56.909Z,1.30
2019-01-18T17:31:32.690Z,1.20
2019-01-18T17:36:16.763Z,1.20
2019-01-18T17:41:38.670Z,1.20
2019-01-18T17:46:57.449Z,1.20
2019-01-18T17:52:05.877Z,1.20
2019-01-18T17:57:08.986Z,1.20
2019-01-18T18:02:34.892Z,1.20
2019-01-18T18:07:44.306Z,1.20
2019-01-18T18:12:55.600Z,1.00
2019-01-18T18:18:06.682Z,1.00
2019-01-18T18:23:15.508Z,1.00
2019-01-18T18:28:41.151Z,1.10
2019-01-18T18:34:07.409Z,1.00
2019-01-18T18:39:36.190Z,0.90
2019-01-18T18:45:02.431Z,0.90
2019-01-18T18:50:03.301Z,0.90
2019-01-18T18:55:09.709Z,1.00
2019-01-18T19:00:01.904Z,0.80
2019-01-18T19:05:33.716Z,0.70
2019-01-18T19:10:22.564Z,0.60
2019-01-18T19:15:51.184Z,0.60
2019-01-18T19:21:14.308Z,0.70
2019-01-18T19:26:10.178Z,0.90
2019-01-18T19:31:21.925Z,0.70
2019-01-18T19:36:22.094Z,0.70
2019-01-18T19:41:38.162Z,0.60
2019-01-18T19:46:58.247Z,0.70
2019-01-18T19:52:36.070Z,0.70
2019-01-18T19:58:08.334Z,0.80
2019-01-18T20:02:57.114Z,0.70
2019-01-18T20:07:59.997Z,0.70
2019-01-18T20:13:09.731Z,0.60
2019-01-18T20:18:53.683Z,0.50
2019-01-18T20:23:55.213Z,0.60
2019-01-18T20:29:11.653Z,0.50
2019-01-18T20:34:42.327Z,0.60
2019-01-18T20:40:14.600Z,0.70
2019-01-18T20:45:17.265Z,0.60
2019-01-18T20:50:26.537Z,0.60
2019-01-18T20:55:44.561Z,0.50
2019-01-18T21:00:53.425Z,0.60
2019-01-18T21:06:13.430Z,0.50
2019-01-18T21:11:26.130Z,0.60
2019-01-18T21:16:26.051Z,0.60
2019-01-18T21:21:18.185Z,0.60
2019-01-18T21:26:23.094Z,0.50
2019-01-18T21:31:14.717Z,0.40
2019-01-18T21:36:21.157Z,0.40
2019-01-18T21:41:35.190Z,0.40
2019-01-18T21:47:07.642Z,0.30
2019-01-18T21:52:15.306Z,0.20
2019-01-18T21:57:23.845Z,0.20
2019-01-18T22:02:22.472Z,0.40
2019-01-18T22:07:36.064Z,0.10
2019-01-18T22:12:41.221Z,0.10
2019-01-18T22:17:44.666Z,0.10
2019-01-18T22:22:52.548Z,0.10
2019-01-18T22:28:06.305Z,0.10
2019-01-18T22:33:23.338Z,0.00
2019-01-18T22:38:49.217Z,-0.10
2019-01-18T22:44:18.171Z,-0.10
2019-01-18T22:49:31.017Z,0.10
2019-01-18T22:54:37.084Z,0.10
2019-01-18T23:00:07.478Z,0.00
2019-01-18T23:05:23.995Z,0.00
2019-01-18T23:10:22.608Z,0.10
2019-01-18T23:15:35.297Z,0.10
2019-01-18T23:20:43.324Z,0.00
2019-01-18T23:25:46.677Z,0.20
2019-01-18T23:31:00.397Z,0.20
2019-01-18T23:36:06.774Z,0.30
2019-01-18T23:41:06.608Z,0.30
2019-01-18T23:46:23.525Z,0.20
2019-01-18T23:51:39.533Z,-0.10
2019-01-18T23:56:40.013Z,0.00
